sensor_id;sensor_type;location;lat;lon;timestamp;P1;durP1;ratioP1;P2;durP2;ratioP2
7205;SDS011;3644;53.480;10.004;2024-01-11T00:00:24;39.80;;;18.73;;
7205;SDS011;3644;53.480;10.004;2024-01-11T00:02:50;34.83;;;17.83;;
7205;SDS011;3644;53.480;10.004;2024-01-11T00:05:15;34.53;;;18.70;;
7205;SDS011;3644;53.480;10.004;2024-01-11T00:07:41;40.17;;;19.83;;
7205;SDS011;3644;53.480;10.004;2024-01-11T00:10:07;41.23;;;20.23;;
7205;SDS011;3644;53.480;10.004;2024-01-11T00:12:32;38.10;;;20.37;;
7205;SDS011;3644;53.480;10.004;2024-01-11T00:14:58;42.50;;;23.33;;
7205;SDS011;3644;53.480;10.004;2024-01-11T00:17:24;42.47;;;19.57;;
7205;SDS011;3644;53.480;10.004;2024-01-11T00:19:50;47.43;;;20.93;;
7205;SDS011;3644;53.480;10.004;2024-01-11T00:22:16;32.30;;;17.60;;
7205;SDS011;3644;53.480;10.004;2024-01-11T00:24:41;38.07;;;20.13;;
7205;SDS011;3644;53.480;10.004;2024-01-11T00:27:07;35.43;;;17.93;;
7205;SDS011;3644;53.480;10.004;2024-01-11T00:29:32;34.00;;;19.93;;
7205;SDS011;3644;53.480;10.004;2024-01-11T00:31:58;33.27;;;17.30;;
7205;SDS011;3644;53.480;10.004;2024-01-11T00:34:24;35.37;;;18.73;;
7205;SDS011;3644;53.480;10.004;2024-01-11T00:36:49;37.03;;;16.83;;
7205;SDS011;3644;53.480;10.004;2024-01-11T00:39:15;41.37;;;19.13;;
7205;SDS011;3644;53.480;10.004;2024-01-11T00:41:40;42.20;;;19.87;;
7205;SDS011;3644;53.480;10.004;2024-01-11T00:44:06;31.87;;;16.80;;
7205;SDS011;3644;53.480;10.004;2024-01-11T00:46:32;45.67;;;21.00;;
7205;SDS011;3644;53.480;10.004;2024-01-11T00:48:58;39.67;;;18.60;;
7205;SDS011;3644;53.480;10.004;2024-01-11T00:51:23;37.03;;;19.10;;
7205;SDS011;3644;53.480;10.004;2024-01-11T00:53:49;38.90;;;20.10;;
7205;SDS011;3644;53.480;10.004;2024-01-11T00:56:15;40.43;;;20.33;;
7205;SDS011;3644;53.480;10.004;2024-01-11T00:58:44;36.60;;;20.80;;
7205;SDS011;3644;53.480;10.004;2024-01-11T01:01:10;39.87;;;20.30;;
7205;SDS011;3644;53.480;10.004;2024-01-11T01:03:36;48.37;;;22.07;;
7205;SDS011;3644;53.480;10.004;2024-01-11T01:06:02;48.27;;;23.77;;
7205;SDS011;3644;53.480;10.004;2024-01-11T01:08:28;45.57;;;22.70;;
7205;SDS011;3644;53.480;10.004;2024-01-11T01:10:54;42.00;;;20.50;;
7205;SDS011;3644;53.480;10.004;2024-01-11T01:13:19;41.73;;;22.17;;
7205;SDS011;3644;53.480;10.004;2024-01-11T01:15:45;39.70;;;18.57;;
7205;SDS011;3644;53.480;10.004;2024-01-11T01:18:11;40.90;;;21.07;;
7205;SDS011;3644;53.480;10.004;2024-01-11T01:20:36;36.27;;;17.17;;
7205;SDS011;3644;53.480;10.004;2024-01-11T01:23:02;38.60;;;19.20;;
7205;SDS011;3644;53.480;10.004;2024-01-11T01:25:28;43.63;;;20.13;;
7205;SDS011;3644;53.480;10.004;2024-01-11T01:27:53;35.20;;;16.40;;
7205;SDS011;3644;53.480;10.004;2024-01-11T01:30:20;34.73;;;17.60;;
7205;SDS011;3644;53.480;10.004;2024-01-11T01:32:45;32.37;;;16.43;;
7205;SDS011;3644;53.480;10.004;2024-01-11T01:35:11;35.57;;;16.10;;
7205;SDS011;3644;53.480;10.004;2024-01-11T01:37:36;28.03;;;14.07;;
7205;SDS011;3644;53.480;10.004;2024-01-11T01:40:02;30.43;;;15.13;;
7205;SDS011;3644;53.480;10.004;2024-01-11T01:42:28;36.80;;;18.37;;
7205;SDS011;3644;53.480;10.004;2024-01-11T01:44:53;35.10;;;16.90;;
7205;SDS011;3644;53.480;10.004;2024-01-11T01:47:19;35.90;;;17.60;;
7205;SDS011;3644;53.480;10.004;2024-01-11T01:49:46;29.97;;;15.00;;
7205;SDS011;3644;53.480;10.004;2024-01-11T01:52:13;45.70;;;16.70;;
7205;SDS011;3644;53.480;10.004;2024-01-11T01:54:41;27.07;;;14.83;;
7205;SDS011;3644;53.480;10.004;2024-01-11T01:57:07;36.37;;;17.57;;
7205;SDS011;3644;53.480;10.004;2024-01-11T01:59:34;34.03;;;16.37;;
7205;SDS011;3644;53.480;10.004;2024-01-11T02:02:00;39.57;;;16.10;;
7205;SDS011;3644;53.480;10.004;2024-01-11T02:04:26;34.60;;;15.27;;
7205;SDS011;3644;53.480;10.004;2024-01-11T02:06:52;29.70;;;15.87;;
7205;SDS011;3644;53.480;10.004;2024-01-11T02:09:20;31.83;;;14.40;;
7205;SDS011;3644;53.480;10.004;2024-01-11T02:11:45;32.47;;;14.97;;
7205;SDS011;3644;53.480;10.004;2024-01-11T02:14:11;32.30;;;14.93;;
7205;SDS011;3644;53.480;10.004;2024-01-11T02:16:37;30.77;;;16.30;;
7205;SDS011;3644;53.480;10.004;2024-01-11T02:19:03;42.27;;;17.40;;
7205;SDS011;3644;53.480;10.004;2024-01-11T02:21:31;36.10;;;17.60;;
7205;SDS011;3644;53.480;10.004;2024-01-11T02:24:05;30.60;;;14.97;;
7205;SDS011;3644;53.480;10.004;2024-01-11T02:26:32;40.37;;;17.17;;
7205;SDS011;3644;53.480;10.004;2024-01-11T02:28:57;30.10;;;13.90;;
7205;SDS011;3644;53.480;10.004;2024-01-11T02:31:23;33.40;;;16.40;;
7205;SDS011;3644;53.480;10.004;2024-01-11T02:33:51;37.37;;;17.57;;
7205;SDS011;3644;53.480;10.004;2024-01-11T02:36:20;29.17;;;16.10;;
7205;SDS011;3644;53.480;10.004;2024-01-11T02:38:46;34.23;;;15.77;;
7205;SDS011;3644;53.480;10.004;2024-01-11T02:41:14;31.97;;;15.47;;
7205;SDS011;3644;53.480;10.004;2024-01-11T02:43:41;32.40;;;15.73;;
7205;SDS011;3644;53.480;10.004;2024-01-11T02:46:14;30.57;;;15.23;;
7205;SDS011;3644;53.480;10.004;2024-01-11T02:48:40;33.10;;;15.17;;
7205;SDS011;3644;53.480;10.004;2024-01-11T02:51:06;32.57;;;15.73;;
7205;SDS011;3644;53.480;10.004;2024-01-11T02:53:31;33.73;;;15.87;;
7205;SDS011;3644;53.480;10.004;2024-01-11T02:55:59;29.73;;;15.33;;
7205;SDS011;3644;53.480;10.004;2024-01-11T02:58:25;44.50;;;15.90;;
7205;SDS011;3644;53.480;10.004;2024-01-11T03:00:50;39.00;;;17.90;;
7205;SDS011;3644;53.480;10.004;2024-01-11T03:03:16;37.13;;;17.40;;
7205;SDS011;3644;53.480;10.004;2024-01-11T03:05:41;31.07;;;15.87;;
7205;SDS011;3644;53.480;10.004;2024-01-11T03:08:07;37.50;;;17.87;;
7205;SDS011;3644;53.480;10.004;2024-01-11T03:10:32;41.67;;;17.17;;
7205;SDS011;3644;53.480;10.004;2024-01-11T03:12:58;28.47;;;16.40;;
7205;SDS011;3644;53.480;10.004;2024-01-11T03:15:23;36.57;;;18.37;;
7205;SDS011;3644;53.480;10.004;2024-01-11T03:17:49;42.50;;;18.73;;
7205;SDS011;3644;53.480;10.004;2024-01-11T03:20:14;36.60;;;17.30;;
7205;SDS011;3644;53.480;10.004;2024-01-11T03:22:50;42.53;;;18.00;;
7205;SDS011;3644;53.480;10.004;2024-01-11T03:25:17;37.00;;;16.30;;
7205;SDS011;3644;53.480;10.004;2024-01-11T03:27:43;33.30;;;16.23;;
7205;SDS011;3644;53.480;10.004;2024-01-11T03:30:08;36.10;;;15.13;;
7205;SDS011;3644;53.480;10.004;2024-01-11T03:32:34;37.13;;;18.23;;
7205;SDS011;3644;53.480;10.004;2024-01-11T03:34:59;43.03;;;17.33;;
7205;SDS011;3644;53.480;10.004;2024-01-11T03:37:25;42.47;;;17.47;;
7205;SDS011;3644;53.480;10.004;2024-01-11T03:39:50;39.00;;;17.50;;
7205;SDS011;3644;53.480;10.004;2024-01-11T03:42:16;40.73;;;18.23;;
7205;SDS011;3644;53.480;10.004;2024-01-11T03:44:42;40.43;;;17.43;;
7205;SDS011;3644;53.480;10.004;2024-01-11T03:47:07;43.30;;;18.80;;
7205;SDS011;3644;53.480;10.004;2024-01-11T03:49:33;42.90;;;18.27;;
7205;SDS011;3644;53.480;10.004;2024-01-11T03:51:58;38.97;;;18.57;;
7205;SDS011;3644;53.480;10.004;2024-01-11T03:54:24;44.57;;;20.00;;
7205;SDS011;3644;53.480;10.004;2024-01-11T03:56:49;44.67;;;18.27;;
7205;SDS011;3644;53.480;10.004;2024-01-11T03:59:15;59.87;;;20.90;;
7205;SDS011;3644;53.480;10.004;2024-01-11T04:01:41;44.83;;;19.87;;
7205;SDS011;3644;53.480;10.004;2024-01-11T04:04:07;38.90;;;18.90;;
7205;SDS011;3644;53.480;10.004;2024-01-11T04:06:33;46.73;;;20.00;;
7205;SDS011;3644;53.480;10.004;2024-01-11T04:08:58;48.17;;;20.03;;
7205;SDS011;3644;53.480;10.004;2024-01-11T04:11:27;41.57;;;20.50;;
7205;SDS011;3644;53.480;10.004;2024-01-11T04:13:53;38.83;;;17.43;;
7205;SDS011;3644;53.480;10.004;2024-01-11T04:16:18;38.87;;;17.33;;
7205;SDS011;3644;53.480;10.004;2024-01-11T04:18:44;53.70;;;20.63;;
7205;SDS011;3644;53.480;10.004;2024-01-11T04:21:26;45.00;;;20.30;;
7205;SDS011;3644;53.480;10.004;2024-01-11T04:23:54;45.63;;;21.70;;
7205;SDS011;3644;53.480;10.004;2024-01-11T04:26:21;47.07;;;20.47;;
7205;SDS011;3644;53.480;10.004;2024-01-11T04:28:46;49.57;;;20.83;;
7205;SDS011;3644;53.480;10.004;2024-01-11T04:31:13;59.57;;;20.20;;
7205;SDS011;3644;53.480;10.004;2024-01-11T04:33:39;46.63;;;19.83;;
7205;SDS011;3644;53.480;10.004;2024-01-11T04:36:06;62.43;;;24.00;;
7205;SDS011;3644;53.480;10.004;2024-01-11T04:38:32;59.53;;;23.03;;
7205;SDS011;3644;53.480;10.004;2024-01-11T04:40:58;51.40;;;20.67;;
7205;SDS011;3644;53.480;10.004;2024-01-11T04:43:23;68.37;;;24.03;;
7205;SDS011;3644;53.480;10.004;2024-01-11T04:45:49;66.50;;;22.73;;
7205;SDS011;3644;53.480;10.004;2024-01-11T04:48:14;53.27;;;22.83;;
7205;SDS011;3644;53.480;10.004;2024-01-11T04:50:40;56.80;;;22.87;;
7205;SDS011;3644;53.480;10.004;2024-01-11T04:53:05;48.17;;;20.80;;
7205;SDS011;3644;53.480;10.004;2024-01-11T04:55:32;47.03;;;20.40;;
7205;SDS011;3644;53.480;10.004;2024-01-11T04:57:57;53.57;;;23.47;;
7205;SDS011;3644;53.480;10.004;2024-01-11T05:00:23;54.30;;;22.50;;
7205;SDS011;3644;53.480;10.004;2024-01-11T05:02:48;55.77;;;21.70;;
7205;SDS011;3644;53.480;10.004;2024-01-11T05:05:14;57.83;;;21.73;;
7205;SDS011;3644;53.480;10.004;2024-01-11T05:07:39;56.90;;;24.37;;
7205;SDS011;3644;53.480;10.004;2024-01-11T05:10:05;42.57;;;19.77;;
7205;SDS011;3644;53.480;10.004;2024-01-11T05:12:31;41.97;;;19.70;;
7205;SDS011;3644;53.480;10.004;2024-01-11T05:14:56;47.17;;;20.43;;
7205;SDS011;3644;53.480;10.004;2024-01-11T05:17:22;47.40;;;21.83;;
7205;SDS011;3644;53.480;10.004;2024-01-11T05:19:47;53.97;;;21.67;;
7205;SDS011;3644;53.480;10.004;2024-01-11T05:22:13;52.37;;;23.13;;
7205;SDS011;3644;53.480;10.004;2024-01-11T05:24:38;51.70;;;23.50;;
7205;SDS011;3644;53.480;10.004;2024-01-11T05:27:04;55.63;;;24.63;;
7205;SDS011;3644;53.480;10.004;2024-01-11T05:29:29;65.80;;;26.40;;
7205;SDS011;3644;53.480;10.004;2024-01-11T05:31:55;66.97;;;25.90;;
7205;SDS011;3644;53.480;10.004;2024-01-11T05:34:20;52.93;;;21.00;;
7205;SDS011;3644;53.480;10.004;2024-01-11T05:36:46;75.77;;;22.10;;
7205;SDS011;3644;53.480;10.004;2024-01-11T05:39:11;50.83;;;21.07;;
7205;SDS011;3644;53.480;10.004;2024-01-11T05:41:37;46.70;;;19.67;;
7205;SDS011;3644;53.480;10.004;2024-01-11T05:44:02;43.30;;;19.20;;
7205;SDS011;3644;53.480;10.004;2024-01-11T05:46:29;42.63;;;17.83;;
7205;SDS011;3644;53.480;10.004;2024-01-11T05:48:54;42.97;;;17.57;;
7205;SDS011;3644;53.480;10.004;2024-01-11T05:51:20;47.97;;;19.17;;
7205;SDS011;3644;53.480;10.004;2024-01-11T05:53:45;42.63;;;18.73;;
7205;SDS011;3644;53.480;10.004;2024-01-11T05:56:11;44.60;;;18.50;;
7205;SDS011;3644;53.480;10.004;2024-01-11T05:58:36;34.87;;;16.67;;
7205;SDS011;3644;53.480;10.004;2024-01-11T06:01:03;35.80;;;15.80;;
7205;SDS011;3644;53.480;10.004;2024-01-11T06:03:29;28.53;;;15.97;;
7205;SDS011;3644;53.480;10.004;2024-01-11T06:05:55;36.43;;;16.73;;
7205;SDS011;3644;53.480;10.004;2024-01-11T06:08:20;34.90;;;16.17;;
7205;SDS011;3644;53.480;10.004;2024-01-11T06:10:46;34.60;;;14.83;;
7205;SDS011;3644;53.480;10.004;2024-01-11T06:13:12;32.10;;;14.50;;
7205;SDS011;3644;53.480;10.004;2024-01-11T06:15:37;28.30;;;14.23;;
7205;SDS011;3644;53.480;10.004;2024-01-11T06:18:03;29.57;;;13.90;;
7205;SDS011;3644;53.480;10.004;2024-01-11T06:20:29;29.57;;;12.90;;
7205;SDS011;3644;53.480;10.004;2024-01-11T06:22:55;37.90;;;14.43;;
7205;SDS011;3644;53.480;10.004;2024-01-11T06:25:20;26.27;;;12.30;;
7205;SDS011;3644;53.480;10.004;2024-01-11T06:27:46;26.33;;;12.60;;
7205;SDS011;3644;53.480;10.004;2024-01-11T06:30:12;20.00;;;10.43;;
7205;SDS011;3644;53.480;10.004;2024-01-11T06:32:38;24.30;;;11.23;;
7205;SDS011;3644;53.480;10.004;2024-01-11T06:35:03;22.23;;;9.90;;
7205;SDS011;3644;53.480;10.004;2024-01-11T06:37:30;18.40;;;10.53;;
7205;SDS011;3644;53.480;10.004;2024-01-11T06:39:55;30.50;;;9.63;;
7205;SDS011;3644;53.480;10.004;2024-01-11T06:42:21;18.87;;;7.90;;
7205;SDS011;3644;53.480;10.004;2024-01-11T06:44:47;21.93;;;11.20;;
7205;SDS011;3644;53.480;10.004;2024-01-11T06:47:12;13.97;;;7.57;;
7205;SDS011;3644;53.480;10.004;2024-01-11T06:49:38;21.50;;;9.30;;
7205;SDS011;3644;53.480;10.004;2024-01-11T06:52:07;22.63;;;10.60;;
7205;SDS011;3644;53.480;10.004;2024-01-11T06:54:32;19.43;;;10.47;;
7205;SDS011;3644;53.480;10.004;2024-01-11T06:56:58;17.73;;;9.50;;
7205;SDS011;3644;53.480;10.004;2024-01-11T06:59:24;26.37;;;9.80;;
7205;SDS011;3644;53.480;10.004;2024-01-11T07:01:49;23.87;;;9.53;;
7205;SDS011;3644;53.480;10.004;2024-01-11T07:04:15;22.73;;;10.67;;
7205;SDS011;3644;53.480;10.004;2024-01-11T07:06:40;17.53;;;9.10;;
7205;SDS011;3644;53.480;10.004;2024-01-11T07:09:06;21.00;;;9.47;;
7205;SDS011;3644;53.480;10.004;2024-01-11T07:11:31;28.80;;;8.07;;
7205;SDS011;3644;53.480;10.004;2024-01-11T07:13:57;19.50;;;7.20;;
7205;SDS011;3644;53.480;10.004;2024-01-11T07:16:23;23.53;;;8.67;;
7205;SDS011;3644;53.480;10.004;2024-01-11T07:18:49;22.50;;;9.30;;
7205;SDS011;3644;53.480;10.004;2024-01-11T07:21:23;14.47;;;7.63;;
7205;SDS011;3644;53.480;10.004;2024-01-11T07:23:56;16.90;;;7.43;;
7205;SDS011;3644;53.480;10.004;2024-01-11T07:26:25;15.50;;;7.80;;
7205;SDS011;3644;53.480;10.004;2024-01-11T07:28:51;13.87;;;8.80;;
7205;SDS011;3644;53.480;10.004;2024-01-11T07:31:19;21.60;;;7.10;;
7205;SDS011;3644;53.480;10.004;2024-01-11T07:33:45;21.70;;;8.57;;
7205;SDS011;3644;53.480;10.004;2024-01-11T07:36:10;17.40;;;8.50;;
7205;SDS011;3644;53.480;10.004;2024-01-11T07:38:36;21.17;;;9.40;;
7205;SDS011;3644;53.480;10.004;2024-01-11T07:41:02;29.90;;;10.20;;
7205;SDS011;3644;53.480;10.004;2024-01-11T07:43:27;30.07;;;10.00;;
7205;SDS011;3644;53.480;10.004;2024-01-11T07:45:54;28.03;;;9.37;;
7205;SDS011;3644;53.480;10.004;2024-01-11T07:48:21;17.77;;;9.60;;
7205;SDS011;3644;53.480;10.004;2024-01-11T07:50:47;20.33;;;9.07;;
7205;SDS011;3644;53.480;10.004;2024-01-11T07:53:13;23.57;;;8.57;;
7205;SDS011;3644;53.480;10.004;2024-01-11T07:55:39;21.57;;;8.23;;
7205;SDS011;3644;53.480;10.004;2024-01-11T07:58:05;27.43;;;10.30;;
7205;SDS011;3644;53.480;10.004;2024-01-11T08:00:31;39.00;;;10.50;;
7205;SDS011;3644;53.480;10.004;2024-01-11T08:02:56;25.80;;;9.80;;
7205;SDS011;3644;53.480;10.004;2024-01-11T08:05:22;34.80;;;8.87;;
7205;SDS011;3644;53.480;10.004;2024-01-11T08:07:47;25.47;;;10.17;;
7205;SDS011;3644;53.480;10.004;2024-01-11T08:10:13;23.53;;;9.90;;
7205;SDS011;3644;53.480;10.004;2024-01-11T08:12:38;28.50;;;10.63;;
7205;SDS011;3644;53.480;10.004;2024-01-11T08:15:04;19.03;;;9.70;;
7205;SDS011;3644;53.480;10.004;2024-01-11T08:17:30;24.20;;;10.57;;
7205;SDS011;3644;53.480;10.004;2024-01-11T08:19:55;28.80;;;10.50;;
7205;SDS011;3644;53.480;10.004;2024-01-11T08:22:21;27.50;;;11.00;;
7205;SDS011;3644;53.480;10.004;2024-01-11T08:24:47;32.00;;;10.77;;
7205;SDS011;3644;53.480;10.004;2024-01-11T08:27:13;33.27;;;10.60;;
7205;SDS011;3644;53.480;10.004;2024-01-11T08:29:40;24.77;;;10.10;;
7205;SDS011;3644;53.480;10.004;2024-01-11T08:32:05;20.10;;;10.50;;
7205;SDS011;3644;53.480;10.004;2024-01-11T08:34:31;30.30;;;10.90;;
7205;SDS011;3644;53.480;10.004;2024-01-11T08:36:58;27.27;;;9.70;;
7205;SDS011;3644;53.480;10.004;2024-01-11T08:39:23;20.13;;;9.40;;
7205;SDS011;3644;53.480;10.004;2024-01-11T08:41:49;24.43;;;9.50;;
7205;SDS011;3644;53.480;10.004;2024-01-11T08:44:14;26.10;;;10.23;;
7205;SDS011;3644;53.480;10.004;2024-01-11T08:46:40;40.93;;;11.53;;
7205;SDS011;3644;53.480;10.004;2024-01-11T08:49:05;25.70;;;10.40;;
7205;SDS011;3644;53.480;10.004;2024-01-11T08:51:31;24.30;;;10.50;;
7205;SDS011;3644;53.480;10.004;2024-01-11T08:53:59;22.97;;;10.33;;
7205;SDS011;3644;53.480;10.004;2024-01-11T08:56:25;41.27;;;12.30;;
7205;SDS011;3644;53.480;10.004;2024-01-11T08:58:51;31.93;;;11.50;;
7205;SDS011;3644;53.480;10.004;2024-01-11T09:01:16;32.60;;;12.00;;
7205;SDS011;3644;53.480;10.004;2024-01-11T09:03:43;38.90;;;14.20;;
7205;SDS011;3644;53.480;10.004;2024-01-11T09:06:08;39.33;;;12.10;;
7205;SDS011;3644;53.480;10.004;2024-01-11T09:08:34;37.23;;;11.27;;
7205;SDS011;3644;53.480;10.004;2024-01-11T09:10:59;23.00;;;10.43;;
7205;SDS011;3644;53.480;10.004;2024-01-11T09:13:25;29.40;;;11.73;;
7205;SDS011;3644;53.480;10.004;2024-01-11T09:15:52;26.97;;;10.90;;
7205;SDS011;3644;53.480;10.004;2024-01-11T09:18:19;24.83;;;8.83;;
7205;SDS011;3644;53.480;10.004;2024-01-11T09:20:44;15.97;;;8.33;;
7205;SDS011;3644;53.480;10.004;2024-01-11T09:23:10;23.70;;;9.57;;
7205;SDS011;3644;53.480;10.004;2024-01-11T09:25:36;23.23;;;9.90;;
7205;SDS011;3644;53.480;10.004;2024-01-11T09:28:01;23.90;;;8.73;;
7205;SDS011;3644;53.480;10.004;2024-01-11T09:30:28;15.57;;;6.97;;
7205;SDS011;3644;53.480;10.004;2024-01-11T09:32:53;25.03;;;8.90;;
7205;SDS011;3644;53.480;10.004;2024-01-11T09:35:19;11.27;;;5.87;;
7205;SDS011;3644;53.480;10.004;2024-01-11T09:37:45;15.00;;;5.53;;
7205;SDS011;3644;53.480;10.004;2024-01-11T09:40:11;9.37;;;5.43;;
7205;SDS011;3644;53.480;10.004;2024-01-11T09:42:37;11.67;;;6.30;;
7205;SDS011;3644;53.480;10.004;2024-01-11T09:45:06;10.87;;;5.77;;
7205;SDS011;3644;53.480;10.004;2024-01-11T09:47:35;12.30;;;5.40;;
7205;SDS011;3644;53.480;10.004;2024-01-11T09:50:02;16.43;;;6.50;;
7205;SDS011;3644;53.480;10.004;2024-01-11T09:52:28;12.00;;;5.13;;
7205;SDS011;3644;53.480;10.004;2024-01-11T09:54:57;17.20;;;7.13;;
7205;SDS011;3644;53.480;10.004;2024-01-11T09:57:29;16.67;;;8.70;;
7205;SDS011;3644;53.480;10.004;2024-01-11T09:59:57;26.90;;;8.70;;
7205;SDS011;3644;53.480;10.004;2024-01-11T10:02:26;20.20;;;8.40;;
7205;SDS011;3644;53.480;10.004;2024-01-11T10:04:52;19.77;;;8.70;;
7205;SDS011;3644;53.480;10.004;2024-01-11T10:07:18;32.20;;;14.43;;
7205;SDS011;3644;53.480;10.004;2024-01-11T10:09:46;20.50;;;8.77;;
7205;SDS011;3644;53.480;10.004;2024-01-11T10:12:12;30.13;;;11.73;;
7205;SDS011;3644;53.480;10.004;2024-01-11T10:14:38;16.93;;;9.10;;
7205;SDS011;3644;53.480;10.004;2024-01-11T10:17:03;23.83;;;10.20;;
7205;SDS011;3644;53.480;10.004;2024-01-11T10:19:30;26.63;;;11.07;;
7205;SDS011;3644;53.480;10.004;2024-01-11T10:21:56;22.90;;;11.00;;
7205;SDS011;3644;53.480;10.004;2024-01-11T10:24:23;25.13;;;10.10;;
7205;SDS011;3644;53.480;10.004;2024-01-11T10:26:57;40.93;;;12.60;;
7205;SDS011;3644;53.480;10.004;2024-01-11T10:29:30;26.00;;;11.60;;
7205;SDS011;3644;53.480;10.004;2024-01-11T10:31:55;28.60;;;11.93;;
7205;SDS011;3644;53.480;10.004;2024-01-11T10:34:22;24.73;;;11.90;;
7205;SDS011;3644;53.480;10.004;2024-01-11T10:36:48;37.13;;;12.53;;
7205;SDS011;3644;53.480;10.004;2024-01-11T10:39:14;28.00;;;11.97;;
7205;SDS011;3644;53.480;10.004;2024-01-11T10:41:43;30.50;;;11.90;;
7205;SDS011;3644;53.480;10.004;2024-01-11T10:44:19;34.00;;;13.80;;
7205;SDS011;3644;53.480;10.004;2024-01-11T10:46:49;40.47;;;15.80;;
7205;SDS011;3644;53.480;10.004;2024-01-11T10:49:19;25.77;;;12.10;;
7205;SDS011;3644;53.480;10.004;2024-01-11T10:52:09;33.30;;;14.93;;
7205;SDS011;3644;53.480;10.004;2024-01-11T10:54:36;37.67;;;13.40;;
7205;SDS011;3644;53.480;10.004;2024-01-11T10:57:04;32.40;;;13.80;;
7205;SDS011;3644;53.480;10.004;2024-01-11T10:59:32;47.53;;;15.27;;
7205;SDS011;3644;53.480;10.004;2024-01-11T11:02:02;42.30;;;15.53;;
7205;SDS011;3644;53.480;10.004;2024-01-11T11:04:31;40.00;;;16.50;;
7205;SDS011;3644;53.480;10.004;2024-01-11T11:06:59;50.37;;;17.20;;
7205;SDS011;3644;53.480;10.004;2024-01-11T11:09:27;39.33;;;16.73;;
7205;SDS011;3644;53.480;10.004;2024-01-11T11:11:56;39.57;;;16.13;;
7205;SDS011;3644;53.480;10.004;2024-01-11T11:14:23;40.10;;;17.10;;
7205;SDS011;3644;53.480;10.004;2024-01-11T11:16:49;30.60;;;15.23;;
7205;SDS011;3644;53.480;10.004;2024-01-11T11:19:16;37.50;;;16.37;;
7205;SDS011;3644;53.480;10.004;2024-01-11T11:21:44;64.70;;;14.87;;
7205;SDS011;3644;53.480;10.004;2024-01-11T11:24:10;52.03;;;17.40;;
7205;SDS011;3644;53.480;10.004;2024-01-11T11:26:37;38.03;;;16.73;;
7205;SDS011;3644;53.480;10.004;2024-01-11T11:29:03;38.63;;;17.43;;
7205;SDS011;3644;53.480;10.004;2024-01-11T11:31:36;55.70;;;17.87;;
7205;SDS011;3644;53.480;10.004;2024-01-11T11:34:05;41.03;;;16.10;;
7205;SDS011;3644;53.480;10.004;2024-01-11T11:36:32;36.37;;;14.83;;
7205;SDS011;3644;53.480;10.004;2024-01-11T11:38:59;37.57;;;15.93;;
7205;SDS011;3644;53.480;10.004;2024-01-11T11:41:26;39.57;;;15.97;;
7205;SDS011;3644;53.480;10.004;2024-01-11T11:43:52;32.80;;;15.60;;
7205;SDS011;3644;53.480;10.004;2024-01-11T11:46:18;36.53;;;16.27;;
7205;SDS011;3644;53.480;10.004;2024-01-11T11:48:47;36.80;;;16.30;;
7205;SDS011;3644;53.480;10.004;2024-01-11T11:51:18;39.93;;;15.73;;
7205;SDS011;3644;53.480;10.004;2024-01-11T11:53:45;40.93;;;15.43;;
7205;SDS011;3644;53.480;10.004;2024-01-11T11:56:12;37.63;;;17.53;;
7205;SDS011;3644;53.480;10.004;2024-01-11T11:58:40;49.97;;;18.67;;
7205;SDS011;3644;53.480;10.004;2024-01-11T12:01:05;44.90;;;17.73;;
7205;SDS011;3644;53.480;10.004;2024-01-11T12:03:37;42.70;;;17.90;;
7205;SDS011;3644;53.480;10.004;2024-01-11T12:06:06;55.03;;;19.03;;
7205;SDS011;3644;53.480;10.004;2024-01-11T12:08:38;32.80;;;14.37;;
7205;SDS011;3644;53.480;10.004;2024-01-11T12:11:07;34.37;;;16.10;;
7205;SDS011;3644;53.480;10.004;2024-01-11T12:13:32;30.80;;;16.00;;
7205;SDS011;3644;53.480;10.004;2024-01-11T12:15:58;40.50;;;17.80;;
7205;SDS011;3644;53.480;10.004;2024-01-11T12:18:24;39.00;;;17.53;;
7205;SDS011;3644;53.480;10.004;2024-01-11T12:20:49;37.60;;;17.60;;
7205;SDS011;3644;53.480;10.004;2024-01-11T12:23:17;65.90;;;20.00;;
7205;SDS011;3644;53.480;10.004;2024-01-11T12:25:43;47.63;;;20.60;;
7205;SDS011;3644;53.480;10.004;2024-01-11T12:28:09;41.93;;;18.00;;
7205;SDS011;3644;53.480;10.004;2024-01-11T12:30:35;35.73;;;16.53;;
7205;SDS011;3644;53.480;10.004;2024-01-11T12:33:00;44.93;;;18.73;;
7205;SDS011;3644;53.480;10.004;2024-01-11T12:35:27;38.80;;;16.67;;
7205;SDS011;3644;53.480;10.004;2024-01-11T12:37:59;40.30;;;16.37;;
7205;SDS011;3644;53.480;10.004;2024-01-11T12:40:26;47.53;;;17.30;;
7205;SDS011;3644;53.480;10.004;2024-01-11T12:42:53;42.23;;;16.77;;
7205;SDS011;3644;53.480;10.004;2024-01-11T12:45:19;38.50;;;15.50;;
7205;SDS011;3644;53.480;10.004;2024-01-11T12:47:45;45.97;;;17.70;;
7205;SDS011;3644;53.480;10.004;2024-01-11T12:50:11;43.43;;;16.93;;
7205;SDS011;3644;53.480;10.004;2024-01-11T12:52:37;50.17;;;17.10;;
7205;SDS011;3644;53.480;10.004;2024-01-11T12:55:03;53.00;;;17.10;;
7205;SDS011;3644;53.480;10.004;2024-01-11T12:57:29;42.93;;;18.33;;
7205;SDS011;3644;53.480;10.004;2024-01-11T12:59:55;37.23;;;15.60;;
7205;SDS011;3644;53.480;10.004;2024-01-11T13:02:38;36.77;;;17.83;;
7205;SDS011;3644;53.480;10.004;2024-01-11T13:05:04;41.83;;;16.90;;
7205;SDS011;3644;53.480;10.004;2024-01-11T13:07:30;36.50;;;16.63;;
7205;SDS011;3644;53.480;10.004;2024-01-11T13:09:57;40.40;;;19.10;;
7205;SDS011;3644;53.480;10.004;2024-01-11T13:12:22;39.73;;;17.00;;
7205;SDS011;3644;53.480;10.004;2024-01-11T13:14:48;40.93;;;17.87;;
7205;SDS011;3644;53.480;10.004;2024-01-11T13:17:13;46.93;;;18.43;;
7205;SDS011;3644;53.480;10.004;2024-01-11T13:19:39;47.57;;;17.03;;
7205;SDS011;3644;53.480;10.004;2024-01-11T13:22:04;41.20;;;16.77;;
7205;SDS011;3644;53.480;10.004;2024-01-11T13:24:30;42.63;;;17.67;;
7205;SDS011;3644;53.480;10.004;2024-01-11T13:26:56;39.80;;;15.73;;
7205;SDS011;3644;53.480;10.004;2024-01-11T13:29:21;37.00;;;17.53;;
7205;SDS011;3644;53.480;10.004;2024-01-11T13:31:47;36.63;;;16.70;;
7205;SDS011;3644;53.480;10.004;2024-01-11T13:34:12;39.97;;;15.57;;
7205;SDS011;3644;53.480;10.004;2024-01-11T13:36:38;37.10;;;16.47;;
7205;SDS011;3644;53.480;10.004;2024-01-11T13:39:03;50.43;;;17.70;;
7205;SDS011;3644;53.480;10.004;2024-01-11T13:41:29;41.10;;;17.83;;
7205;SDS011;3644;53.480;10.004;2024-01-11T13:43:55;39.53;;;17.70;;
7205;SDS011;3644;53.480;10.004;2024-01-11T13:46:20;53.50;;;17.80;;
7205;SDS011;3644;53.480;10.004;2024-01-11T13:48:46;51.23;;;17.23;;
7205;SDS011;3644;53.480;10.004;2024-01-11T13:51:12;37.20;;;17.00;;
7205;SDS011;3644;53.480;10.004;2024-01-11T13:53:40;40.30;;;19.03;;
7205;SDS011;3644;53.480;10.004;2024-01-11T13:56:06;43.73;;;14.67;;
7205;SDS011;3644;53.480;10.004;2024-01-11T13:58:31;40.83;;;18.37;;
7205;SDS011;3644;53.480;10.004;2024-01-11T14:00:57;46.63;;;19.10;;
7205;SDS011;3644;53.480;10.004;2024-01-11T14:03:23;45.90;;;18.13;;
7205;SDS011;3644;53.480;10.004;2024-01-11T14:05:49;48.70;;;19.47;;
7205;SDS011;3644;53.480;10.004;2024-01-11T14:08:15;73.13;;;26.50;;
7205;SDS011;3644;53.480;10.004;2024-01-11T14:10:40;102.43;;;36.53;;
7205;SDS011;3644;53.480;10.004;2024-01-11T14:13:06;84.87;;;28.00;;
7205;SDS011;3644;53.480;10.004;2024-01-11T14:15:31;42.57;;;18.77;;
7205;SDS011;3644;53.480;10.004;2024-01-11T14:17:57;43.43;;;19.67;;
7205;SDS011;3644;53.480;10.004;2024-01-11T14:20:22;44.87;;;17.10;;
7205;SDS011;3644;53.480;10.004;2024-01-11T14:22:49;39.93;;;16.97;;
7205;SDS011;3644;53.480;10.004;2024-01-11T14:25:15;50.77;;;17.37;;
7205;SDS011;3644;53.480;10.004;2024-01-11T14:27:41;53.37;;;21.70;;
7205;SDS011;3644;53.480;10.004;2024-01-11T14:30:07;42.50;;;20.03;;